createdAt,value
2023-04-20T00:00:38.808Z,0.00
2023-04-20T00:01:39.081Z,0.00
2023-04-20T00:02:39.498Z,0.00
2023-04-20T00:03:39.761Z,0.00
2023-04-20T00:04:39.929Z,0.00
2023-04-20T00:05:40.155Z,0.00
2023-04-20T00:06:40.436Z,0.00
2023-04-20T00:07:40.700Z,0.00
2023-04-20T00:08:41.023Z,0.00
2023-04-20T00:09:41.308Z,0.00
2023-04-20T00:10:41.580Z,0.00
2023-04-20T00:11:41.844Z,0.00
2023-04-20T00:12:42.152Z,0.00
2023-04-20T00:13:42.383Z,0.00
2023-04-20T00:14:42.692Z,0.00
2023-04-20T00:15:43.022Z,0.00
2023-04-20T00:16:43.321Z,0.00
2023-04-20T00:17:43.658Z,0.00
2023-04-20T00:18:43.885Z,0.00
2023-04-20T00:19:44.150Z,0.00
2023-04-20T00:20:44.443Z,0.00
2023-04-20T00:21:44.753Z,0.00
2023-04-20T00:22:45.019Z,0.00
2023-04-20T00:23:45.311Z,0.00
2023-04-20T00:24:45.624Z,0.00
2023-04-20T00:25:45.892Z,0.00
2023-04-20T00:26:46.141Z,0.00
2023-04-20T00:27:46.394Z,0.00
2023-04-20T00:28:46.683Z,0.00
2023-04-20T00:29:46.989Z,0.00
2023-04-20T00:30:47.382Z,0.00
2023-04-20T00:31:47.576Z,0.00
2023-04-20T00:32:47.893Z,0.00
2023-04-20T00:33:48.177Z,0.00
2023-04-20T00:34:48.491Z,0.00
2023-04-20T00:35:48.760Z,0.00
2023-04-20T00:36:49.023Z,0.00
2023-04-20T00:37:49.291Z,0.00
2023-04-20T00:38:49.576Z,0.00
2023-04-20T00:39:49.866Z,0.00
2023-04-20T00:40:50.142Z,0.00
2023-04-20T00:41:50.424Z,0.00
2023-04-20T00:42:50.698Z,0.00
2023-04-20T00:43:50.956Z,0.00
2023-04-20T00:44:51.238Z,0.00
2023-04-20T00:45:51.561Z,0.00
2023-04-20T00:46:51.827Z,0.00
2023-04-20T00:47:52.147Z,0.00
2023-04-20T00:48:52.406Z,0.00
2023-04-20T00:49:52.678Z,0.00
2023-04-20T00:50:52.922Z,0.00
2023-04-20T00:51:53.198Z,0.00
2023-04-20T00:52:53.481Z,0.00
2023-04-20T00:53:53.782Z,0.00
2023-04-20T00:54:54.007Z,0.00
2023-04-20T00:55:54.243Z,0.00
2023-04-20T00:56:54.524Z,0.00
2023-04-20T00:57:54.789Z,0.00
2023-04-20T00:58:55.065Z,0.00
2023-04-20T00:59:55.320Z,0.00
2023-04-20T01:00:55.581Z,0.00
2023-04-20T01:01:55.998Z,0.00
2023-04-20T01:02:56.342Z,0.00
2023-04-20T01:03:56.569Z,0.00
2023-04-20T01:04:56.681Z,0.00
2023-04-20T01:05:56.992Z,0.00
2023-04-20T01:06:57.215Z,0.00
2023-04-20T01:07:57.501Z,0.00
2023-04-20T01:08:57.777Z,0.00
2023-04-20T01:09:58.060Z,0.00
2023-04-20T01:10:58.322Z,0.00
2023-04-20T01:11:58.597Z,0.00
2023-04-20T01:12:58.864Z,0.00
2023-04-20T01:13:59.096Z,0.00
2023-04-20T01:14:59.342Z,0.00
2023-04-20T01:15:59.669Z,0.00
2023-04-20T01:16:59.930Z,0.00
2023-04-20T01:18:00.234Z,0.00
2023-04-20T01:19:00.501Z,0.00
2023-04-20T01:20:00.790Z,0.00
2023-04-20T01:21:01.037Z,0.00
2023-04-20T01:22:01.331Z,0.00
2023-04-20T01:23:01.624Z,0.00
2023-04-20T01:24:01.898Z,0.00
2023-04-20T01:25:02.194Z,0.00
2023-04-20T01:26:02.387Z,0.00
2023-04-20T01:27:02.662Z,0.00
2023-04-20T01:28:02.962Z,0.00
2023-04-20T01:29:03.220Z,0.00
2023-04-20T01:30:03.473Z,0.00
2023-04-20T01:31:03.725Z,0.00
2023-04-20T01:32:03.968Z,0.00
2023-04-20T01:33:04.329Z,0.00
2023-04-20T01:34:04.511Z,0.00
2023-04-20T01:35:04.796Z,0.00
2023-04-20T01:36:05.057Z,0.00
2023-04-20T01:37:05.384Z,0.00
2023-04-20T01:38:05.613Z,0.00
2023-04-20T01:39:05.906Z,0.00
2023-04-20T01:40:06.182Z,0.00
2023-04-20T01:41:06.478Z,0.00
2023-04-20T01:42:06.747Z,0.00
2023-04-20T01:43:07.024Z,0.00
2023-04-20T01:44:07.321Z,0.00
2023-04-20T01:45:07.644Z,0.00
2023-04-20T01:46:07.877Z,0.00
2023-04-20T01:47:08.379Z,0.00
2023-04-20T01:48:08.485Z,0.00
2023-04-20T01:49:08.717Z,0.00
2023-04-20T01:50:08.978Z,0.00
2023-04-20T01:51:09.262Z,0.00
2023-04-20T01:52:09.575Z,0.00
2023-04-20T01:53:09.787Z,0.00
2023-04-20T01:54:10.073Z,0.00
2023-04-20T01:55:10.331Z,0.00
2023-04-20T01:56:10.587Z,0.00
2023-04-20T01:57:10.836Z,0.00
2023-04-20T01:58:11.123Z,0.00
2023-04-20T01:59:11.412Z,0.00
2023-04-20T02:00:11.657Z,0.00
2023-04-20T02:01:11.955Z,0.00
2023-04-20T02:02:12.311Z,0.00
2023-04-20T02:03:12.622Z,0.00
2023-04-20T02:04:12.876Z,0.00
2023-04-20T02:05:13.068Z,0.00
2023-04-20T02:06:13.348Z,0.00
2023-04-20T02:07:13.652Z,0.00
2023-04-20T02:08:13.909Z,0.00
2023-04-20T02:09:14.175Z,0.00
2023-04-20T02:10:14.438Z,0.00
2023-04-20T02:11:14.734Z,0.00
2023-04-20T02:12:15.046Z,0.00
2023-04-20T02:13:15.290Z,0.00
2023-04-20T02:14:15.611Z,0.00
2023-04-20T02:15:15.888Z,0.00
2023-04-20T02:16:23.148Z,0.00
2023-04-20T02:17:16.525Z,0.00
2023-04-20T02:18:16.775Z,0.00
2023-04-20T02:19:17.298Z,0.00
2023-04-20T02:20:17.326Z,0.00
2023-04-20T02:21:17.587Z,0.00
2023-04-20T02:22:17.837Z,0.00
2023-04-20T02:23:18.120Z,0.00
2023-04-20T02:24:18.388Z,0.00
2023-04-20T02:25:18.648Z,0.00
2023-04-20T02:26:18.887Z,0.00
2023-04-20T02:27:19.133Z,0.00
2023-04-20T02:28:19.416Z,0.00
2023-04-20T02:29:19.987Z,0.00
2023-04-20T02:30:20.029Z,0.00
2023-04-20T02:31:20.334Z,0.00
2023-04-20T02:32:20.597Z,0.00
2023-04-20T02:33:20.829Z,0.00
2023-04-20T02:34:21.091Z,0.00
2023-04-20T02:35:21.326Z,0.00
2023-04-20T02:36:21.571Z,0.00
2023-04-20T02:37:21.858Z,0.00
2023-04-20T02:38:22.095Z,0.00
2023-04-20T02:39:22.358Z,0.00
2023-04-20T02:40:22.614Z,0.00
2023-04-20T02:41:22.898Z,0.00
2023-04-20T02:42:23.197Z,0.00
2023-04-20T02:43:23.435Z,0.00
2023-04-20T02:44:23.682Z,0.00
2023-04-20T02:45:23.922Z,0.00
2023-04-20T02:46:24.202Z,0.00
2023-04-20T02:47:24.492Z,0.00
2023-04-20T02:48:24.729Z,0.00
2023-04-20T02:49:24.986Z,0.00
2023-04-20T02:50:25.253Z,0.00
2023-04-20T02:51:25.506Z,0.00
2023-04-20T02:52:25.758Z,0.00
2023-04-20T02:53:26.018Z,0.00
2023-04-20T02:54:26.306Z,0.00
2023-04-20T02:55:26.569Z,0.00
2023-04-20T02:56:26.849Z,0.00
2023-04-20T02:57:27.147Z,0.00
2023-04-20T02:58:27.381Z,0.00
2023-04-20T02:59:27.671Z,0.00
2023-04-20T03:00:27.934Z,0.00
2023-04-20T03:01:28.240Z,0.00
2023-04-20T03:02:28.618Z,0.00
2023-04-20T03:03:28.924Z,0.00
2023-04-20T03:04:29.190Z,0.00
2023-04-20T03:05:29.410Z,0.00
2023-04-20T03:06:29.682Z,0.00
2023-04-20T03:07:29.961Z,0.00
2023-04-20T03:08:30.238Z,0.00
2023-04-20T03:09:30.523Z,0.00
2023-04-20T03:10:30.792Z,0.00
2023-04-20T03:11:31.108Z,0.00
2023-04-20T03:12:31.373Z,0.00
2023-04-20T03:13:31.634Z,0.00
2023-04-20T03:14:31.935Z,0.00
2023-04-20T03:15:32.178Z,0.00
2023-04-20T03:16:32.522Z,0.00
2023-04-20T03:17:32.780Z,0.00
2023-04-20T03:18:33.009Z,0.00
2023-04-20T03:19:33.261Z,0.00
2023-04-20T03:20:33.502Z,0.00
2023-04-20T03:21:33.785Z,0.00
2023-04-20T03:22:34.051Z,0.00
2023-04-20T03:23:34.301Z,0.00
2023-04-20T03:24:34.536Z,0.00
2023-04-20T03:25:34.802Z,0.00
2023-04-20T03:26:35.027Z,0.00
2023-04-20T03:27:35.287Z,0.00
2023-04-20T03:28:35.543Z,0.00
2023-04-20T03:29:35.768Z,0.00
2023-04-20T03:30:36.017Z,0.00
2023-04-20T03:31:36.355Z,0.00
2023-04-20T03:32:36.637Z,0.00
2023-04-20T03:33:36.825Z,0.00
2023-04-20T03:34:37.067Z,0.00
2023-04-20T03:35:37.330Z,0.00
2023-04-20T03:36:37.602Z,0.00
2023-04-20T03:37:38.050Z,0.00
2023-04-20T03:38:38.169Z,0.00
2023-04-20T03:39:38.396Z,0.00
2023-04-20T03:40:38.715Z,0.00
2023-04-20T03:41:38.948Z,0.00
2023-04-20T03:42:39.222Z,0.00
2023-04-20T03:43:39.518Z,0.00
2023-04-20T03:44:39.764Z,0.00
2023-04-20T03:45:40.082Z,0.00
2023-04-20T03:46:40.281Z,0.00
2023-04-20T03:47:40.562Z,0.00
2023-04-20T03:48:40.842Z,0.00
2023-04-20T03:49:41.109Z,0.00
2023-04-20T03:50:41.380Z,0.00
2023-04-20T03:51:41.617Z,0.00
2023-04-20T03:52:41.937Z,0.00
2023-04-20T03:53:42.177Z,0.00
2023-04-20T03:54:42.432Z,0.00
2023-04-20T03:55:42.715Z,0.00
2023-04-20T03:56:42.962Z,0.00
2023-04-20T03:57:43.275Z,0.00
2023-04-20T03:58:43.556Z,0.00
2023-04-20T03:59:43.841Z,0.00
2023-04-20T04:00:44.142Z,0.00
2023-04-20T04:01:44.435Z,0.00
2023-04-20T04:02:44.910Z,0.00
2023-04-20T04:03:45.162Z,0.00
2023-04-20T04:04:45.478Z,0.00
2023-04-20T04:05:45.612Z,0.00
2023-04-20T04:06:45.886Z,0.00
2023-04-20T04:07:46.196Z,0.00
2023-04-20T04:08:46.599Z,0.00
2023-04-20T04:09:46.822Z,0.00
2023-04-20T04:10:47.120Z,0.00
2023-04-20T04:11:47.404Z,0.00
2023-04-20T04:12:47.687Z,0.00
2023-04-20T04:13:47.968Z,0.00
2023-04-20T04:14:48.253Z,0.00
2023-04-20T04:15:48.498Z,0.00
2023-04-20T04:16:48.819Z,0.00
2023-04-20T04:17:49.112Z,0.00
2023-04-20T04:18:49.370Z,0.00
2023-04-20T04:19:49.643Z,0.00
2023-04-20T04:20:49.971Z,0.00
2023-04-20T04:21:50.227Z,0.00
2023-04-20T04:22:50.489Z,0.00
2023-04-20T04:23:50.782Z,0.00
2023-04-20T04:24:51.035Z,0.00
2023-04-20T04:25:51.339Z,0.00
2023-04-20T04:26:51.595Z,0.00
2023-04-20T04:27:51.879Z,0.00
2023-04-20T04:28:52.156Z,0.00
2023-04-20T04:29:52.542Z,0.00
2023-04-20T04:30:52.737Z,0.00
2023-04-20T04:31:53.087Z,0.00
2023-04-20T04:32:53.376Z,0.00
2023-04-20T04:33:53.622Z,0.00
2023-04-20T04:34:53.933Z,0.00
2023-04-20T04:35:54.210Z,0.00
2023-04-20T04:36:54.462Z,0.00
2023-04-20T04:37:54.813Z,0.00
2023-04-20T04:38:55.053Z,0.00
2023-04-20T04:39:55.340Z,0.00
2023-04-20T04:40:55.646Z,0.00
2023-04-20T04:41:55.915Z,0.00
2023-04-20T04:42:56.236Z,0.00
2023-04-20T04:43:56.523Z,0.00
2023-04-20T04:44:56.834Z,0.00
2023-04-20T04:45:57.136Z,0.00
2023-04-20T04:46:57.411Z,5.62
2023-04-20T04:47:57.768Z,5.62
2023-04-20T04:48:57.934Z,5.62
2023-04-20T04:49:58.231Z,5.62
2023-04-20T04:50:58.519Z,5.62
2023-04-20T04:51:58.809Z,5.62
2023-04-20T04:52:59.135Z,5.62
2023-04-20T04:53:59.411Z,5.62
2023-04-20T04:54:59.733Z,5.62
2023-04-20T04:56:00.049Z,5.62
2023-04-20T04:57:00.312Z,5.62
2023-04-20T04:58:00.593Z,5.62
2023-04-20T04:59:00.902Z,11.25
2023-04-20T05:00:01.222Z,11.25
2023-04-20T05:01:01.549Z,11.25
2023-04-20T05:02:01.982Z,11.25
2023-04-20T05:03:02.293Z,11.25
2023-04-20T05:04:02.610Z,11.25
2023-04-20T05:05:02.714Z,11.25
2023-04-20T05:06:02.973Z,11.25
2023-04-20T05:07:03.258Z,11.25
2023-04-20T05:08:03.609Z,16.88
2023-04-20T05:09:03.878Z,16.88
2023-04-20T05:10:04.193Z,16.88
2023-04-20T05:11:04.471Z,16.88
2023-04-20T05:12:04.789Z,22.50
2023-04-20T05:13:05.227Z,22.50
2023-04-20T05:14:05.446Z,22.50
2023-04-20T05:15:05.776Z,22.50
2023-04-20T05:16:06.056Z,22.50
2023-04-20T05:17:06.438Z,22.50
2023-04-20T05:18:06.663Z,22.50
2023-04-20T05:19:06.856Z,22.50
2023-04-20T05:20:07.118Z,16.88
2023-04-20T05:21:07.469Z,16.88
2023-04-20T05:22:07.797Z,16.88
2023-04-20T05:23:08.010Z,16.88
2023-04-20T05:24:08.300Z,22.50
2023-04-20T05:25:08.590Z,22.50
2023-04-20T05:26:08.910Z,22.50
2023-04-20T05:27:09.298Z,22.50
2023-04-20T05:28:09.562Z,28.12
2023-04-20T05:29:09.900Z,28.12
2023-04-20T05:30:20.278Z,28.12
2023-04-20T05:31:11.432Z,33.75
2023-04-20T05:32:10.823Z,33.75
2023-04-20T05:33:11.017Z,33.75
2023-04-20T05:34:11.447Z,33.75
2023-04-20T05:35:11.714Z,39.38
2023-04-20T05:36:11.989Z,39.38
2023-04-20T05:37:12.368Z,45.00
2023-04-20T05:38:12.559Z,45.00
2023-04-20T05:39:12.879Z,50.62
2023-04-20T05:40:13.100Z,45.00
2023-04-20T05:41:13.450Z,45.00
2023-04-20T05:42:13.757Z,45.00
2023-04-20T05:43:14.064Z,45.00
2023-04-20T05:44:14.378Z,45.00
2023-04-20T05:45:14.692Z,45.00
2023-04-20T05:46:15.076Z,45.00
2023-04-20T05:47:15.216Z,45.00
2023-04-20T05:48:15.518Z,50.62
2023-04-20T05:49:15.974Z,50.62
2023-04-20T05:50:16.050Z,50.62
2023-04-20T05:51:16.342Z,50.62
2023-04-20T05:52:16.664Z,50.62
2023-04-20T05:53:16.976Z,50.62
2023-04-20T05:54:17.304Z,45.00
2023-04-20T05:55:19.363Z,45.00
2023-04-20T05:56:17.836Z,45.00
2023-04-20T05:57:18.139Z,50.62
2023-04-20T05:58:18.467Z,50.62
2023-04-20T05:59:19.005Z,50.62
2023-04-20T06:00:19.114Z,50.62
2023-04-20T06:01:19.431Z,45.00
2023-04-20T06:02:19.849Z,45.00
2023-04-20T06:03:20.185Z,45.00
2023-04-20T06:04:20.660Z,45.00
2023-04-20T06:05:20.643Z,45.00
2023-04-20T06:06:20.933Z,45.00
2023-04-20T06:07:21.265Z,39.38
2023-04-20T06:08:21.593Z,39.38
2023-04-20T06:09:22.116Z,39.38
2023-04-20T06:10:22.192Z,39.38
2023-04-20T06:11:22.474Z,33.75
2023-04-20T06:12:23.794Z,33.75
2023-04-20T06:13:23.075Z,28.12
2023-04-20T06:14:23.414Z,22.50
2023-04-20T06:15:23.725Z,22.50
2023-04-20T06:16:24.030Z,22.50
2023-04-20T06:17:24.397Z,22.50
2023-04-20T06:18:24.676Z,22.50
2023-04-20T06:19:24.970Z,22.50
2023-04-20T06:20:25.270Z,22.50
2023-04-20T06:21:25.579Z,22.50
2023-04-20T06:22:25.855Z,28.12
2023-04-20T06:23:26.160Z,33.75
2023-04-20T06:24:26.474Z,39.38
2023-04-20T06:25:26.804Z,39.38
2023-04-20T06:26:27.081Z,45.00
2023-04-20T06:27:27.352Z,50.62
2023-04-20T06:28:27.656Z,50.62
2023-04-20T06:29:28.006Z,50.62
2023-04-20T06:30:28.352Z,56.25
2023-04-20T06:31:28.704Z,61.88
2023-04-20T06:32:29.010Z,67.50
2023-04-20T06:33:29.311Z,73.12
2023-04-20T06:34:29.650Z,67.50
2023-04-20T06:35:29.959Z,56.25
2023-04-20T06:36:30.219Z,50.62
2023-04-20T06:37:30.546Z,45.00
2023-04-20T06:38:30.867Z,45.00
2023-04-20T06:39:31.159Z,39.38
2023-04-20T06:40:31.463Z,39.38
2023-04-20T06:41:31.748Z,39.38
2023-04-20T06:42:32.046Z,45.00
2023-04-20T06:43:32.353Z,45.00
2023-04-20T06:44:32.646Z,50.62
2023-04-20T06:45:34.115Z,56.25
2023-04-20T06:46:33.196Z,61.88
2023-04-20T06:47:33.506Z,73.12
2023-04-20T06:48:33.834Z,78.75
2023-04-20T06:49:34.136Z,78.75
2023-04-20T06:50:34.399Z,73.12
2023-04-20T06:51:34.689Z,73.12
2023-04-20T06:52:35.019Z,73.12
2023-04-20T06:53:35.355Z,73.12
2023-04-20T06:54:35.635Z,73.12
2023-04-20T06:55:35.968Z,73.12
2023-04-20T06:56:36.272Z,73.12
2023-04-20T06:57:36.574Z,73.12
2023-04-20T06:58:36.900Z,73.12
2023-04-20T06:59:37.195Z,78.75
2023-04-20T07:00:37.508Z,78.75
2023-04-20T07:01:37.928Z,84.38
2023-04-20T07:02:38.224Z,90.00
2023-04-20T07:03:38.705Z,95.62
2023-04-20T07:04:38.853Z,101.25
2023-04-20T07:05:39.096Z,101.25
2023-04-20T07:06:39.392Z,101.25
2023-04-20T07:07:39.673Z,101.25
2023-04-20T07:08:40.012Z,112.50
2023-04-20T07:09:40.300Z,123.75
2023-04-20T07:10:40.648Z,129.38
2023-04-20T07:11:40.929Z,135.00
2023-04-20T07:12:43.285Z,140.62
2023-04-20T07:13:41.546Z,146.25
2023-04-20T07:14:41.836Z,146.25
2023-04-20T07:15:42.134Z,151.88
2023-04-20T07:16:42.503Z,157.50
2023-04-20T07:17:42.818Z,163.12
2023-04-20T07:18:43.106Z,174.38
2023-04-20T07:19:43.391Z,174.38
2023-04-20T07:20:43.736Z,174.38
2023-04-20T07:21:43.994Z,174.38
2023-04-20T07:22:44.282Z,168.75
2023-04-20T07:23:45.157Z,163.12
2023-04-20T07:24:44.904Z,157.50
2023-04-20T07:25:45.212Z,157.50
2023-04-20T07:26:45.521Z,157.50
2023-04-20T07:27:45.830Z,157.50
2023-04-20T07:28:46.155Z,151.88
2023-04-20T07:29:46.481Z,146.25
2023-04-20T07:30:46.769Z,140.62
2023-04-20T07:31:47.103Z,135.00
2023-04-20T07:32:47.440Z,123.75
2023-04-20T07:33:47.707Z,118.12
2023-04-20T07:34:48.018Z,118.12
2023-04-20T07:35:48.452Z,118.12
2023-04-20T07:36:48.718Z,112.50
2023-04-20T07:37:48.886Z,112.50
2023-04-20T07:38:49.213Z,106.88
2023-04-20T07:39:49.529Z,106.88
2023-04-20T07:40:49.835Z,106.88
2023-04-20T07:41:50.150Z,106.88
2023-04-20T07:42:50.473Z,101.25
2023-04-20T07:43:50.788Z,101.25
2023-04-20T07:44:51.118Z,101.25
2023-04-20T07:45:51.489Z,101.25
2023-04-20T07:46:52.157Z,95.62
2023-04-20T07:47:52.067Z,90.00
2023-04-20T07:48:52.346Z,95.62
2023-04-20T07:49:52.644Z,101.25
2023-04-20T07:51:00.133Z,106.88
2023-04-20T07:51:56.827Z,101.25
2023-04-20T07:52:54.441Z,95.62
2023-04-20T07:53:54.013Z,101.25
2023-04-20T07:54:54.055Z,101.25
2023-04-20T07:55:54.403Z,112.50
2023-04-20T07:56:54.713Z,101.25
2023-04-20T07:57:55.017Z,95.62
2023-04-20T07:58:55.397Z,90.00
2023-04-20T07:59:55.666Z,95.62
2023-04-20T08:00:55.990Z,95.62
2023-04-20T08:01:56.451Z,90.00
2023-04-20T08:02:56.696Z,101.25
2023-04-20T08:03:57.104Z,129.38
2023-04-20T08:04:57.356Z,129.38
2023-04-20T08:05:57.706Z,129.38
2023-04-20T08:06:57.650Z,129.38
2023-04-20T08:07:57.963Z,123.75
2023-04-20T08:08:58.322Z,135.00
2023-04-20T08:09:58.635Z,157.50
2023-04-20T08:10:58.873Z,168.75
2023-04-20T08:11:59.173Z,163.12
2023-04-20T08:12:59.466Z,168.75
2023-04-20T08:14:00.395Z,174.38
2023-04-20T08:15:00.174Z,174.38
2023-04-20T08:16:00.646Z,174.38
2023-04-20T08:17:00.689Z,168.75
2023-04-20T08:18:01.049Z,157.50
2023-04-20T08:19:01.395Z,151.88
2023-04-20T08:20:01.624Z,151.88
2023-04-20T08:21:01.933Z,140.62
2023-04-20T08:22:02.324Z,140.62
2023-04-20T08:23:02.573Z,151.88
2023-04-20T08:24:02.923Z,151.88
2023-04-20T08:25:03.214Z,157.50
2023-04-20T08:26:03.542Z,168.75
2023-04-20T08:27:03.871Z,168.75
2023-04-20T08:28:04.277Z,157.50
2023-04-20T08:29:04.573Z,146.25
2023-04-20T08:30:04.846Z,146.25
2023-04-20T08:31:05.316Z,140.62
2023-04-20T08:32:05.526Z,135.00
2023-04-20T08:33:05.932Z,146.25
2023-04-20T08:34:06.207Z,140.62
2023-04-20T08:35:06.712Z,140.62
2023-04-20T08:36:06.820Z,135.00
2023-04-20T08:37:07.133Z,129.38
2023-04-20T08:38:07.444Z,135.00
2023-04-20T08:39:07.796Z,146.25
2023-04-20T08:40:08.084Z,163.12
2023-04-20T08:41:08.410Z,180.00
2023-04-20T08:42:08.735Z,174.38
2023-04-20T08:43:09.067Z,163.12
2023-04-20T08:44:09.410Z,157.50
2023-04-20T08:45:09.708Z,135.00
2023-04-20T08:46:10.049Z,129.38
2023-04-20T08:47:10.232Z,129.38
2023-04-20T08:48:10.567Z,123.75
2023-04-20T08:49:10.912Z,118.12
2023-04-20T08:50:11.226Z,123.75
2023-04-20T08:51:11.569Z,118.12
2023-04-20T08:52:11.869Z,106.88
2023-04-20T08:53:12.291Z,95.62
2023-04-20T08:54:12.477Z,84.38
2023-04-20T08:55:12.767Z,78.75
2023-04-20T08:56:13.125Z,73.12
2023-04-20T08:57:13.400Z,73.12
2023-04-20T08:58:13.713Z,67.50
2023-04-20T08:59:14.049Z,67.50
2023-04-20T09:00:14.345Z,73.12
2023-04-20T09:01:17.738Z,78.75
2023-04-20T09:02:15.990Z,78.75
2023-04-20T09:03:15.467Z,78.75
2023-04-20T09:04:16.057Z,84.38
2023-04-20T09:05:15.893Z,84.38
2023-04-20T09:06:16.202Z,84.38
2023-04-20T09:07:16.507Z,90.00
2023-04-20T09:08:16.821Z,112.50
2023-04-20T09:09:17.210Z,129.38
2023-04-20T09:10:17.493Z,135.00
2023-04-20T09:11:17.820Z,123.75
2023-04-20T09:12:18.145Z,118.12
2023-04-20T09:13:18.476Z,118.12
2023-04-20T09:14:19.000Z,118.12
2023-04-20T09:15:19.088Z,135.00
2023-04-20T09:16:19.479Z,157.50
2023-04-20T09:17:19.705Z,191.25
2023-04-20T09:18:20.061Z,196.88
2023-04-20T09:19:20.389Z,202.50
2023-04-20T09:20:20.664Z,213.75
2023-04-20T09:21:20.967Z,219.38
2023-04-20T09:22:21.294Z,236.25
2023-04-20T09:23:21.626Z,241.88
2023-04-20T09:24:21.980Z,241.88
2023-04-20T09:25:22.172Z,247.50
2023-04-20T09:26:22.490Z,247.50
2023-04-20T09:27:22.805Z,247.50
2023-04-20T09:28:23.167Z,264.38
2023-04-20T09:29:23.476Z,275.62
2023-04-20T09:30:23.821Z,286.88
2023-04-20T09:31:24.117Z,286.88
2023-04-20T09:32:24.486Z,275.62
2023-04-20T09:33:24.764Z,264.38
2023-04-20T09:34:25.072Z,247.50
2023-04-20T09:35:25.396Z,241.88
2023-04-20T09:36:25.730Z,230.62
2023-04-20T09:37:26.075Z,225.00
2023-04-20T09:38:26.403Z,230.62
2023-04-20T09:39:26.753Z,236.25
2023-04-20T09:40:27.074Z,230.62
2023-04-20T09:41:27.419Z,225.00
2023-04-20T09:42:27.753Z,213.75
2023-04-20T09:43:28.044Z,213.75
2023-04-20T09:44:28.341Z,236.25
2023-04-20T09:45:28.784Z,258.75
2023-04-20T09:46:29.063Z,281.25
2023-04-20T09:47:29.270Z,286.88
2023-04-20T09:48:31.944Z,270.00
2023-04-20T09:49:29.873Z,258.75
2023-04-20T09:50:41.886Z,253.12
2023-04-20T09:51:31.409Z,236.25
2023-04-20T09:52:30.649Z,230.62
2023-04-20T09:53:30.946Z,219.38
2023-04-20T09:54:31.283Z,202.50
2023-04-20T09:55:31.633Z,185.62
2023-04-20T09:56:31.945Z,174.38
2023-04-20T09:57:32.266Z,163.12
2023-04-20T09:58:32.597Z,146.25
2023-04-20T09:59:32.942Z,146.25
2023-04-20T10:00:33.466Z,146.25
2023-04-20T10:01:33.751Z,140.62
2023-04-20T10:02:33.994Z,140.62
2023-04-20T10:03:34.272Z,151.88
2023-04-20T10:04:34.595Z,157.50
2023-04-20T10:05:34.854Z,174.38
2023-04-20T10:06:35.331Z,202.50
2023-04-20T10:07:35.510Z,236.25
2023-04-20T10:08:35.826Z,264.38
2023-04-20T10:09:36.107Z,286.88
2023-04-20T10:10:36.449Z,303.75
2023-04-20T10:11:48.935Z,309.38
2023-04-20T10:12:38.037Z,315.00
2023-04-20T10:13:37.346Z,309.38
2023-04-20T10:14:37.707Z,309.38
2023-04-20T10:15:37.962Z,303.75
2023-04-20T10:16:38.310Z,303.75
2023-04-20T10:17:38.662Z,303.75
2023-04-20T10:18:38.889Z,303.75
2023-04-20T10:19:39.066Z,298.12
2023-04-20T10:20:39.421Z,292.50
2023-04-20T10:21:39.715Z,286.88
2023-04-20T10:22:40.022Z,281.25
2023-04-20T10:23:40.396Z,281.25
2023-04-20T10:24:40.595Z,281.25
2023-04-20T10:25:40.875Z,298.12
2023-04-20T10:26:41.211Z,315.00
2023-04-20T10:27:41.474Z,320.62
2023-04-20T10:28:41.838Z,331.88
2023-04-20T10:29:42.137Z,337.50
2023-04-20T10:30:42.505Z,331.88
2023-04-20T10:31:42.817Z,315.00
2023-04-20T10:32:43.168Z,309.38
2023-04-20T10:33:43.453Z,315.00
2023-04-20T10:34:43.795Z,315.00
2023-04-20T10:35:45.916Z,315.00
2023-04-20T10:36:44.286Z,309.38
2023-04-20T10:37:44.552Z,298.12
2023-04-20T10:38:44.850Z,264.38
2023-04-20T10:39:45.187Z,258.75
2023-04-20T10:40:45.526Z,275.62
2023-04-20T10:41:45.741Z,270.00
2023-04-20T10:42:46.010Z,230.62
2023-04-20T10:43:46.321Z,196.88
2023-04-20T10:44:46.624Z,202.50
2023-04-20T10:45:47.028Z,241.88
2023-04-20T10:46:47.418Z,241.88
2023-04-20T10:47:47.639Z,247.50
2023-04-20T10:48:47.872Z,241.88
2023-04-20T10:49:48.192Z,241.88
2023-04-20T10:50:48.532Z,230.62
2023-04-20T10:51:49.183Z,225.00
2023-04-20T10:52:49.157Z,213.75
2023-04-20T10:53:49.470Z,208.12
2023-04-20T10:54:49.777Z,202.50
2023-04-20T10:55:50.157Z,202.50
2023-04-20T10:56:50.456Z,196.88
2023-04-20T10:57:50.776Z,208.12
2023-04-20T10:58:51.082Z,219.38
2023-04-20T10:59:51.448Z,230.62
2023-04-20T11:00:51.745Z,241.88
2023-04-20T11:01:52.226Z,258.75
2023-04-20T11:02:52.522Z,275.62
2023-04-20T11:03:52.755Z,281.25
2023-04-20T11:04:53.082Z,298.12
2023-04-20T11:05:53.431Z,286.88
2023-04-20T11:06:53.610Z,281.25
2023-04-20T11:07:53.946Z,270.00
2023-04-20T11:08:54.161Z,270.00
2023-04-20T11:09:54.486Z,247.50
2023-04-20T11:10:54.779Z,208.12
2023-04-20T11:11:55.107Z,185.62
2023-04-20T11:12:55.451Z,174.38
2023-04-20T11:13:55.757Z,174.38
2023-04-20T11:14:56.070Z,180.00
2023-04-20T11:15:56.451Z,191.25
2023-04-20T11:16:56.741Z,219.38
2023-04-20T11:17:57.072Z,241.88
2023-04-20T11:18:57.369Z,253.12
2023-04-20T11:19:57.593Z,281.25
2023-04-20T11:20:57.812Z,292.50
2023-04-20T11:21:58.196Z,292.50
2023-04-20T11:22:58.445Z,286.88
2023-04-20T11:23:58.773Z,281.25
2023-04-20T11:24:59.095Z,275.62
2023-04-20T11:25:59.427Z,264.38
2023-04-20T11:26:59.820Z,230.62
2023-04-20T11:28:00.018Z,219.38
2023-04-20T11:29:00.272Z,225.00
2023-04-20T11:30:00.534Z,225.00
2023-04-20T11:31:00.883Z,225.00
2023-04-20T11:32:01.505Z,236.25
2023-04-20T11:33:01.750Z,230.62
2023-04-20T11:34:02.063Z,241.88
2023-04-20T11:36:02.459Z,264.38
2023-04-20T11:37:02.772Z,253.12
2023-04-20T11:38:03.174Z,253.12
2023-04-20T11:39:03.430Z,253.12
2023-04-20T11:40:03.760Z,270.00
2023-04-20T11:41:04.127Z,281.25
2023-04-20T11:42:04.454Z,286.88
2023-04-20T11:43:05.041Z,270.00
2023-04-20T11:44:05.095Z,264.38
2023-04-20T11:45:05.386Z,258.75
2023-04-20T11:46:05.790Z,247.50
2023-04-20T11:47:06.206Z,253.12
2023-04-20T11:48:06.514Z,241.88
2023-04-20T11:49:06.675Z,247.50
2023-04-20T11:50:06.976Z,230.62
2023-04-20T11:51:07.320Z,236.25
2023-04-20T11:52:07.641Z,247.50
2023-04-20T11:53:07.939Z,247.50
2023-04-20T11:54:08.240Z,241.88
2023-04-20T11:55:08.595Z,241.88
2023-04-20T11:56:08.928Z,247.50
2023-04-20T11:57:09.278Z,247.50
2023-04-20T11:58:09.610Z,253.12
2023-04-20T11:59:09.905Z,258.75
2023-04-20T12:00:10.245Z,270.00
2023-04-20T12:01:10.611Z,270.00
2023-04-20T12:02:11.026Z,275.62
2023-04-20T12:03:11.377Z,281.25
2023-04-20T12:04:11.629Z,286.88
2023-04-20T12:05:12.095Z,298.12
2023-04-20T12:06:12.128Z,309.38
2023-04-20T12:07:12.456Z,309.38
2023-04-20T12:08:12.752Z,303.75
2023-04-20T12:09:13.041Z,303.75
2023-04-20T12:10:13.447Z,309.38
2023-04-20T12:11:13.705Z,303.75
2023-04-20T12:12:14.034Z,298.12
2023-04-20T12:13:14.332Z,298.12
2023-04-20T12:14:14.671Z,292.50
2023-04-20T12:15:15.020Z,298.12
2023-04-20T12:16:15.255Z,303.75
2023-04-20T12:17:15.523Z,303.75
2023-04-20T12:18:15.884Z,298.12
2023-04-20T12:19:16.612Z,298.12
2023-04-20T12:20:16.435Z,298.12
2023-04-20T12:21:16.791Z,298.12
2023-04-20T12:22:17.112Z,298.12
2023-04-20T12:23:17.299Z,298.12
2023-04-20T12:24:17.601Z,292.50
2023-04-20T12:25:17.944Z,298.12
2023-04-20T12:26:18.330Z,298.12
2023-04-20T12:27:18.595Z,292.50
2023-04-20T12:28:18.895Z,298.12
2023-04-20T12:29:19.596Z,298.12
2023-04-20T12:30:19.540Z,298.12
2023-04-20T12:31:19.932Z,286.88
2023-04-20T12:32:20.071Z,281.25
2023-04-20T12:33:20.388Z,270.00
2023-04-20T12:34:20.965Z,253.12
2023-04-20T12:35:21.000Z,236.25
2023-04-20T12:36:21.350Z,219.38
2023-04-20T12:37:21.692Z,213.75
2023-04-20T12:38:21.978Z,202.50
2023-04-20T12:39:22.305Z,196.88
2023-04-20T12:40:22.641Z,208.12
2023-04-20T12:41:23.026Z,208.12
2023-04-20T12:42:23.306Z,196.88
2023-04-20T12:43:23.649Z,196.88
2023-04-20T12:44:23.971Z,196.88
2023-04-20T12:45:24.252Z,202.50
2023-04-20T12:46:24.630Z,208.12
2023-04-20T12:47:25.049Z,202.50
2023-04-20T12:48:25.164Z,202.50
2023-04-20T12:49:25.492Z,202.50
2023-04-20T12:50:25.790Z,196.88
2023-04-20T12:51:26.149Z,213.75
2023-04-20T12:52:26.342Z,213.75
2023-04-20T12:53:27.415Z,208.12
2023-04-20T12:54:26.973Z,202.50
2023-04-20T12:55:27.299Z,202.50
2023-04-20T12:56:27.711Z,185.62